createdAt,value
2022-11-27T00:01:55.290Z,7.23
2022-11-27T00:04:21.907Z,6.93
2022-11-27T00:06:48.503Z,8.03
2022-11-27T00:09:16.135Z,7.90
2022-11-27T00:11:43.290Z,6.90
2022-11-27T00:14:14.133Z,7.10
2022-11-27T00:16:41.037Z,8.00
2022-11-27T00:19:08.131Z,7.10
2022-11-27T00:21:36.146Z,6.57
2022-11-27T00:24:03.992Z,7.10
2022-11-27T00:26:37.323Z,7.23
2022-11-27T00:29:05.261Z,6.37
2022-11-27T00:31:32.630Z,6.83
2022-11-27T00:34:00.558Z,6.70
2022-11-27T00:36:27.937Z,7.13
2022-11-27T00:38:54.927Z,6.17
2022-11-27T00:41:22.918Z,7.57
2022-11-27T00:43:50.032Z,6.97
2022-11-27T00:46:17.122Z,6.80
2022-11-27T00:48:44.361Z,6.53
2022-11-27T00:51:12.816Z,7.30
2022-11-27T00:53:40.018Z,6.97
2022-11-27T00:56:06.811Z,7.57
2022-11-27T00:58:33.478Z,6.17
2022-11-27T01:01:01.660Z,6.80
2022-11-27T01:03:28.760Z,6.57
2022-11-27T01:05:55.677Z,6.23
2022-11-27T01:08:22.701Z,6.17
2022-11-27T01:10:55.040Z,6.37
2022-11-27T01:13:32.444Z,6.13
2022-11-27T01:16:04.515Z,5.27
2022-11-27T01:18:31.270Z,5.57
2022-11-27T01:20:58.260Z,5.50
2022-11-27T01:23:25.046Z,5.40
2022-11-27T01:25:53.880Z,5.53
2022-11-27T01:28:21.592Z,5.20
2022-11-27T01:30:48.619Z,4.87
2022-11-27T01:33:15.373Z,5.37
2022-11-27T01:35:42.083Z,5.07
2022-11-27T01:38:08.766Z,5.43
2022-11-27T01:40:35.407Z,4.97
2022-11-27T01:43:02.032Z,4.80
2022-11-27T01:45:28.729Z,4.90
2022-11-27T01:47:57.734Z,5.23
2022-11-27T01:50:30.163Z,4.90
2022-11-27T01:53:00.206Z,5.93
2022-11-27T01:55:28.895Z,4.90
2022-11-27T01:57:58.213Z,6.30
2022-11-27T02:00:25.199Z,5.13
2022-11-27T02:02:52.125Z,5.23
2022-11-27T02:05:21.085Z,5.90
2022-11-27T02:07:48.229Z,5.70
2022-11-27T02:10:15.450Z,6.17
2022-11-27T02:12:46.220Z,5.23
2022-11-27T02:15:22.088Z,5.00
2022-11-27T02:18:12.990Z,5.30
2022-11-27T02:20:52.908Z,5.27
2022-11-27T02:23:38.551Z,4.83
2022-11-27T02:26:23.666Z,4.37
2022-11-27T02:28:56.166Z,5.17
2022-11-27T02:31:27.542Z,4.67
2022-11-27T02:33:55.982Z,5.00
2022-11-27T02:36:25.355Z,4.20
2022-11-27T02:38:53.984Z,4.30
2022-11-27T02:41:29.988Z,4.83
2022-11-27T02:43:58.035Z,4.70
2022-11-27T02:46:26.373Z,4.40
2022-11-27T02:48:55.708Z,5.20
2022-11-27T02:51:25.505Z,4.93
2022-11-27T02:53:53.906Z,4.30
2022-11-27T02:56:23.358Z,4.63
2022-11-27T02:58:51.122Z,4.27
2022-11-27T03:01:20.481Z,4.90
2022-11-27T03:03:49.155Z,4.80
2022-11-27T03:06:19.254Z,4.43
2022-11-27T03:08:58.277Z,4.53
2022-11-27T03:11:26.851Z,4.17
2022-11-27T03:13:54.880Z,4.23
2022-11-27T03:16:36.113Z,4.40
2022-11-27T03:19:09.029Z,4.67
2022-11-27T03:21:43.488Z,5.20
2022-11-27T03:24:10.483Z,5.80
2022-11-27T03:26:37.806Z,4.80
2022-11-27T03:29:06.290Z,5.13
2022-11-27T03:31:33.292Z,5.50
2022-11-27T03:34:00.039Z,5.30
2022-11-27T03:36:26.633Z,5.30
2022-11-27T03:38:54.243Z,5.93
2022-11-27T03:41:33.000Z,4.93
2022-11-27T03:44:08.620Z,4.60
2022-11-27T03:46:53.866Z,4.83
2022-11-27T03:49:20.527Z,4.80
2022-11-27T03:51:58.797Z,5.07
2022-11-27T03:54:41.210Z,6.27
2022-11-27T03:57:28.246Z,5.00
2022-11-27T03:59:57.055Z,5.57
2022-11-27T04:02:32.426Z,5.27
2022-11-27T04:04:59.048Z,5.70
2022-11-27T04:07:25.795Z,5.80
2022-11-27T04:09:52.871Z,5.23
2022-11-27T04:12:19.554Z,6.30
2022-11-27T04:14:46.333Z,6.03
2022-11-27T04:17:12.932Z,5.00
2022-11-27T04:19:39.597Z,5.47
2022-11-27T04:22:06.252Z,6.27
2022-11-27T04:24:33.108Z,5.57
2022-11-27T04:26:59.719Z,6.10
2022-11-27T04:29:26.305Z,6.00
2022-11-27T04:31:52.941Z,6.03
2022-11-27T04:34:19.535Z,5.67
2022-11-27T04:36:46.287Z,7.03
2022-11-27T04:39:13.427Z,7.97
2022-11-27T04:41:40.062Z,8.47
2022-11-27T04:44:06.705Z,6.37
2022-11-27T04:46:33.367Z,8.20
2022-11-27T04:49:00.156Z,9.03
2022-11-27T04:51:26.802Z,8.73
2022-11-27T04:53:53.510Z,8.00
2022-11-27T04:56:20.149Z,8.73
2022-11-27T04:58:46.696Z,7.83
2022-11-27T05:01:13.624Z,7.93
2022-11-27T05:03:40.219Z,8.63
2022-11-27T05:06:07.072Z,7.87
2022-11-27T05:08:33.736Z,8.13
2022-11-27T05:11:00.366Z,9.00
2022-11-27T05:13:27.034Z,8.77
2022-11-27T05:15:53.833Z,8.50
2022-11-27T05:18:20.439Z,8.03
2022-11-27T05:20:47.337Z,8.43
2022-11-27T05:23:13.964Z,8.03
2022-11-27T05:25:40.526Z,8.33
2022-11-27T05:28:07.162Z,9.00
2022-11-27T05:30:33.849Z,8.50
2022-11-27T05:33:00.499Z,9.47
2022-11-27T05:35:27.149Z,8.43
2022-11-27T05:37:53.760Z,9.37
2022-11-27T05:40:20.366Z,9.13
2022-11-27T05:42:47.014Z,9.00
2022-11-27T05:45:13.560Z,8.00
2022-11-27T05:47:40.190Z,9.53
2022-11-27T05:50:07.215Z,8.83
2022-11-27T05:52:33.818Z,8.43
2022-11-27T05:55:00.413Z,9.23
2022-11-27T05:57:28.194Z,10.23
2022-11-27T05:59:54.762Z,9.33
2022-11-27T06:02:26.357Z,9.77
2022-11-27T06:04:55.668Z,8.90
2022-11-27T06:07:22.270Z,8.70
2022-11-27T06:09:49.080Z,9.23
2022-11-27T06:12:15.694Z,8.17
2022-11-27T06:14:42.637Z,9.17
2022-11-27T06:17:09.567Z,8.87
2022-11-27T06:19:36.263Z,9.63
2022-11-27T06:22:02.875Z,10.00
2022-11-27T06:24:29.481Z,8.77
2022-11-27T06:26:56.028Z,9.37
2022-11-27T06:29:22.868Z,9.30
2022-11-27T06:31:49.522Z,8.83
2022-11-27T06:34:16.217Z,8.90
2022-11-27T06:36:43.028Z,8.90
2022-11-27T06:39:10.759Z,8.80
2022-11-27T06:41:37.726Z,8.30
2022-11-27T06:44:04.415Z,9.43
2022-11-27T06:46:31.275Z,8.20
2022-11-27T06:48:57.885Z,8.90
2022-11-27T06:51:25.507Z,8.33
2022-11-27T06:53:52.829Z,8.47
2022-11-27T06:56:20.553Z,7.77
2022-11-27T06:58:50.489Z,7.70
2022-11-27T07:01:17.625Z,7.20
2022-11-27T07:03:44.562Z,8.00
2022-11-27T07:06:12.399Z,7.33
2022-11-27T07:08:39.545Z,7.23
2022-11-27T07:11:07.647Z,7.17
2022-11-27T07:13:34.640Z,7.67
2022-11-27T07:16:05.944Z,7.50
2022-11-27T07:18:36.965Z,7.73
2022-11-27T07:21:03.919Z,7.70
2022-11-27T07:23:30.526Z,7.90
2022-11-27T07:25:57.164Z,7.70
2022-11-27T07:28:24.018Z,7.87
2022-11-27T07:30:54.394Z,6.93
2022-11-27T07:33:21.007Z,6.80
2022-11-27T07:35:47.570Z,7.10
2022-11-27T07:38:14.390Z,7.30
2022-11-27T07:40:41.017Z,6.77
2022-11-27T07:43:07.741Z,6.80
2022-11-27T07:45:34.433Z,6.50
2022-11-27T07:48:01.008Z,5.90
2022-11-27T07:50:27.567Z,6.00
2022-11-27T07:52:54.253Z,6.27
2022-11-27T07:55:20.962Z,6.00
2022-11-27T07:57:47.536Z,6.03
2022-11-27T08:00:14.388Z,6.07
2022-11-27T08:02:41.031Z,6.47
2022-11-27T08:05:12.403Z,5.60
2022-11-27T08:07:39.780Z,6.43
2022-11-27T08:10:06.802Z,5.90
2022-11-27T08:12:33.394Z,5.20
2022-11-27T08:15:00.016Z,5.13
2022-11-27T08:17:26.705Z,5.27
2022-11-27T08:19:53.563Z,5.80
2022-11-27T08:22:20.826Z,5.93
2022-11-27T08:24:48.238Z,5.63
2022-11-27T08:27:16.384Z,5.43
2022-11-27T08:29:43.240Z,5.60
2022-11-27T08:32:10.562Z,5.30
2022-11-27T08:34:37.491Z,4.93
2022-11-27T08:37:05.018Z,4.80
2022-11-27T08:39:31.629Z,5.57
2022-11-27T08:41:58.446Z,5.97
2022-11-27T08:44:25.215Z,4.90
2022-11-27T08:46:51.833Z,4.83
2022-11-27T08:49:18.625Z,5.83
2022-11-27T08:51:45.709Z,5.30
2022-11-27T08:54:12.608Z,5.03
2022-11-27T08:56:39.377Z,5.17
2022-11-27T08:59:06.010Z,4.77
2022-11-27T09:01:33.211Z,4.57
2022-11-27T09:04:00.245Z,4.83
2022-11-27T09:06:28.412Z,4.47
2022-11-27T09:08:58.944Z,4.60
2022-11-27T09:11:27.159Z,4.63
2022-11-27T09:13:53.800Z,4.53
2022-11-27T09:16:21.498Z,5.17
2022-11-27T09:18:49.230Z,5.17
2022-11-27T09:21:17.756Z,4.73
2022-11-27T09:23:44.837Z,4.97
2022-11-27T09:26:12.800Z,4.47
2022-11-27T09:28:40.250Z,4.67
2022-11-27T09:31:07.883Z,4.80
2022-11-27T09:33:35.537Z,4.13
2022-11-27T09:36:06.549Z,4.90
2022-11-27T09:38:33.273Z,4.80
2022-11-27T09:41:07.458Z,4.80
2022-11-27T09:43:41.952Z,5.07
2022-11-27T09:46:12.272Z,5.27
2022-11-27T09:48:41.466Z,4.60
2022-11-27T09:51:18.622Z,5.37
2022-11-27T09:53:52.049Z,5.13
2022-11-27T09:56:19.041Z,5.07
2022-11-27T09:58:47.934Z,5.47
2022-11-27T10:01:18.905Z,5.40
2022-11-27T10:03:46.175Z,5.10
2022-11-27T10:06:23.289Z,4.87
2022-11-27T10:09:08.317Z,4.77
2022-11-27T10:11:55.179Z,5.90
2022-11-27T10:14:41.035Z,6.63
2022-11-27T10:17:26.036Z,6.17
2022-11-27T10:19:52.627Z,5.47
2022-11-27T10:22:23.751Z,6.77
2022-11-27T10:24:53.124Z,6.43
2022-11-27T10:27:40.644Z,7.87
2022-11-27T10:30:17.532Z,7.63
2022-11-27T10:32:55.066Z,6.33
2022-11-27T10:35:24.416Z,5.83
2022-11-27T10:37:54.126Z,5.23
2022-11-27T10:40:23.464Z,4.40
2022-11-27T10:42:58.291Z,5.17
2022-11-27T10:45:26.138Z,4.93
2022-11-27T10:47:52.797Z,4.83
2022-11-27T10:50:20.205Z,4.60
2022-11-27T10:52:52.658Z,4.20
2022-11-27T10:55:25.511Z,4.50
2022-11-27T10:57:56.286Z,4.63
2022-11-27T11:00:24.332Z,4.10
2022-11-27T11:03:06.554Z,4.63
2022-11-27T11:06:17.807Z,3.97
2022-11-27T11:08:20.829Z,4.27
2022-11-27T11:10:52.814Z,4.47
2022-11-27T11:13:21.088Z,4.97
2022-11-27T11:15:51.935Z,4.00
2022-11-27T11:18:19.958Z,4.27
2022-11-27T11:20:57.092Z,5.10
2022-11-27T11:23:26.033Z,6.00
2022-11-27T11:25:54.817Z,4.87
2022-11-27T11:28:21.812Z,4.83
2022-11-27T11:30:59.844Z,4.77
2022-11-27T11:33:27.291Z,3.93
2022-11-27T11:35:55.285Z,4.67
2022-11-27T11:38:27.132Z,4.30
2022-11-27T11:40:58.425Z,5.20
2022-11-27T11:43:26.251Z,6.17
2022-11-27T11:45:52.908Z,5.27
2022-11-27T11:48:24.842Z,4.90
2022-11-27T11:50:51.429Z,5.37
2022-11-27T11:53:27.146Z,5.17
2022-11-27T11:56:16.202Z,9.20
2022-11-27T11:59:03.926Z,6.23
2022-11-27T12:01:56.609Z,8.47
2022-11-27T12:04:38.907Z,6.30
2022-11-27T12:07:21.242Z,15.47
2022-11-27T12:10:12.407Z,7.47
2022-11-27T12:12:51.010Z,8.40
2022-11-27T12:15:29.389Z,7.03
2022-11-27T12:17:58.874Z,7.00
2022-11-27T12:20:38.981Z,6.33
2022-11-27T12:23:24.166Z,5.00
2022-11-27T12:25:57.745Z,4.50
2022-11-27T12:28:47.420Z,4.87
2022-11-27T12:31:16.828Z,6.00
2022-11-27T12:33:46.206Z,6.97
2022-11-27T12:36:18.883Z,7.20
2022-11-27T12:38:54.324Z,6.70
2022-11-27T12:41:41.455Z,9.23
2022-11-27T12:44:34.588Z,10.47
2022-11-27T12:47:04.537Z,9.33
2022-11-27T12:50:06.532Z,7.57
2022-11-27T12:52:40.804Z,7.50
2022-11-27T12:55:16.057Z,7.60
2022-11-27T12:57:54.279Z,6.10
2022-11-27T13:00:23.099Z,5.03
2022-11-27T13:03:08.531Z,5.30
2022-11-27T13:05:40.562Z,4.03
2022-11-27T13:08:15.812Z,3.97
2022-11-27T13:10:47.567Z,3.90
2022-11-27T13:13:28.490Z,4.67
2022-11-27T13:15:58.135Z,4.00
2022-11-27T13:18:34.209Z,5.50
2022-11-27T13:21:04.014Z,6.20
2022-11-27T13:23:34.330Z,5.80
2022-11-27T13:26:03.867Z,5.43
2022-11-27T13:28:33.548Z,4.30
2022-11-27T13:31:01.180Z,3.90
2022-11-27T13:33:35.019Z,4.10
2022-11-27T13:36:03.756Z,4.23
2022-11-27T13:38:33.520Z,4.33
2022-11-27T13:41:05.554Z,4.40
2022-11-27T13:43:39.326Z,4.83
2022-11-27T13:46:07.450Z,4.73
2022-11-27T13:48:38.929Z,6.30
2022-11-27T13:51:07.043Z,5.53
2022-11-27T13:53:38.291Z,5.07
2022-11-27T13:56:05.465Z,4.30
2022-11-27T13:58:34.499Z,4.10
2022-11-27T14:01:13.009Z,3.73
2022-11-27T14:03:39.998Z,4.10
2022-11-27T14:06:15.859Z,3.50
2022-11-27T14:08:49.353Z,3.50
2022-11-27T14:11:16.155Z,3.23
2022-11-27T14:13:45.146Z,3.97
2022-11-27T14:16:26.670Z,3.53
2022-11-27T14:18:54.435Z,3.47
2022-11-27T14:21:24.169Z,3.00
2022-11-27T14:23:52.092Z,3.30
2022-11-27T14:26:23.196Z,3.17
2022-11-27T14:28:51.608Z,3.33
2022-11-27T14:31:23.074Z,3.23
2022-11-27T14:34:16.095Z,3.27
2022-11-27T14:36:36.439Z,3.20
2022-11-27T14:39:03.212Z,3.00
2022-11-27T14:41:31.482Z,3.90
2022-11-27T14:44:14.391Z,3.60
2022-11-27T14:46:43.964Z,3.83
2022-11-27T14:49:16.879Z,3.60
2022-11-27T14:51:43.793Z,3.50
2022-11-27T14:54:23.079Z,3.80
2022-11-27T14:56:49.827Z,3.90
2022-11-27T14:59:17.724Z,3.87
2022-11-27T15:01:46.645Z,3.70
2022-11-27T15:04:26.935Z,3.87
2022-11-27T15:06:54.759Z,3.40
2022-11-27T15:09:31.608Z,3.57
2022-11-27T15:12:09.284Z,3.57
2022-11-27T15:14:36.149Z,4.40
2022-11-27T15:17:03.466Z,3.60
2022-11-27T15:19:32.000Z,3.90
2022-11-27T15:21:58.910Z,3.53
2022-11-27T15:24:36.281Z,4.00
2022-11-27T15:27:15.277Z,3.80
2022-11-27T15:30:00.209Z,3.70
2022-11-27T15:32:27.698Z,3.93
2022-11-27T15:34:54.474Z,4.13
2022-11-27T15:37:27.472Z,4.90
2022-11-27T15:39:55.434Z,4.33
2022-11-27T15:42:22.398Z,4.23
2022-11-27T15:44:50.149Z,4.50
2022-11-27T15:47:43.134Z,4.53
2022-11-27T15:50:16.387Z,4.67
2022-11-27T15:52:43.289Z,4.90
2022-11-27T15:55:15.858Z,4.50
2022-11-27T15:57:42.969Z,3.80
2022-11-27T16:00:10.281Z,4.53
2022-11-27T16:02:40.074Z,3.80
2022-11-27T16:05:07.948Z,3.77
2022-11-27T16:07:34.747Z,4.07
2022-11-27T16:10:01.535Z,4.10
2022-11-27T16:12:28.246Z,4.47
2022-11-27T16:14:54.880Z,4.23
2022-11-27T16:17:21.551Z,4.30
2022-11-27T16:19:48.161Z,4.40
2022-11-27T16:22:14.852Z,4.53
2022-11-27T16:24:41.856Z,4.70
2022-11-27T16:27:08.756Z,5.40
2022-11-27T16:29:35.408Z,4.63
2022-11-27T16:32:02.594Z,5.27
2022-11-27T16:34:29.473Z,5.17
2022-11-27T16:36:56.453Z,4.30
2022-11-27T16:39:24.099Z,4.80
2022-11-27T16:41:51.324Z,4.47
2022-11-27T16:44:19.081Z,4.73
2022-11-27T16:46:46.144Z,4.40
2022-11-27T16:49:13.267Z,4.37
2022-11-27T16:51:40.979Z,4.80
2022-11-27T16:54:11.501Z,4.63
2022-11-27T16:56:40.639Z,4.83
2022-11-27T16:59:12.725Z,4.60
2022-11-27T17:01:41.285Z,4.67
2022-11-27T17:04:09.278Z,4.30
2022-11-27T17:06:36.952Z,4.37
2022-11-27T17:09:04.797Z,4.13
2022-11-27T17:11:33.737Z,4.03
2022-11-27T17:14:02.600Z,3.83
2022-11-27T17:16:29.892Z,4.20
2022-11-27T17:18:58.099Z,3.07
2022-11-27T17:21:29.915Z,3.87
2022-11-27T17:23:58.231Z,4.27
2022-11-27T17:26:25.689Z,3.60
2022-11-27T17:28:56.191Z,3.70
2022-11-27T17:31:27.673Z,4.00
2022-11-27T17:33:56.947Z,3.97
2022-11-27T17:36:24.560Z,3.90
2022-11-27T17:38:52.200Z,3.90
2022-11-27T17:41:19.181Z,3.97
2022-11-27T17:43:46.284Z,4.40
2022-11-27T17:46:20.484Z,5.13
2022-11-27T17:48:49.519Z,4.60
2022-11-27T17:51:16.644Z,4.50
2022-11-27T17:53:43.635Z,4.67
2022-11-27T17:56:12.146Z,4.47
2022-11-27T17:58:39.784Z,4.47
2022-11-27T18:01:12.827Z,4.83
2022-11-27T18:03:40.906Z,4.93
2022-11-27T18:06:07.775Z,5.37
2022-11-27T18:08:35.003Z,5.27
2022-11-27T18:11:14.192Z,4.87
2022-11-27T18:13:40.983Z,4.57
2022-11-27T18:16:14.561Z,4.90
2022-11-27T18:18:41.635Z,6.53
2022-11-27T18:21:10.971Z,4.67
2022-11-27T18:24:14.622Z,5.07
2022-11-27T18:26:52.413Z,4.67
2022-11-27T18:29:16.490Z,4.47
2022-11-27T18:31:43.554Z,5.10
2022-11-27T18:34:10.437Z,4.70
2022-11-27T18:36:37.113Z,4.90
2022-11-27T18:39:05.099Z,4.93
2022-11-27T18:41:33.223Z,4.87
2022-11-27T18:43:59.989Z,5.20
2022-11-27T18:46:27.150Z,5.50
2022-11-27T18:48:53.956Z,6.40
2022-11-27T18:51:22.371Z,4.70
2022-11-27T18:53:49.683Z,4.67
2022-11-27T18:56:19.508Z,4.43
2022-11-27T18:58:46.911Z,5.23
2022-11-27T19:01:16.508Z,4.97
2022-11-27T19:03:43.868Z,5.13
2022-11-27T19:06:11.864Z,4.90
2022-11-27T19:08:38.701Z,4.70
2022-11-27T19:11:13.257Z,5.07
2022-11-27T19:13:40.578Z,5.37
2022-11-27T19:16:08.099Z,5.20
2022-11-27T19:18:36.579Z,4.90
2022-11-27T19:21:09.729Z,5.20
2022-11-27T19:23:39.311Z,5.67
2022-11-27T19:26:07.629Z,5.30
2022-11-27T19:28:34.366Z,5.17
2022-11-27T19:31:04.960Z,5.67
2022-11-27T19:33:32.341Z,5.00
2022-11-27T19:36:00.035Z,5.90
2022-11-27T19:38:27.940Z,6.37
2022-11-27T19:40:55.048Z,6.50
2022-11-27T19:43:24.504Z,6.23
2022-11-27T19:45:52.383Z,5.50
2022-11-27T19:48:23.052Z,6.27
2022-11-27T19:51:03.463Z,6.03
2022-11-27T19:53:30.172Z,6.70
2022-11-27T19:55:57.519Z,6.40
2022-11-27T19:58:24.244Z,5.83
2022-11-27T20:00:52.290Z,6.50
2022-11-27T20:03:21.219Z,6.67
2022-11-27T20:06:00.577Z,7.30
2022-11-27T20:08:27.261Z,6.97
2022-11-27T20:10:53.974Z,6.80
2022-11-27T20:13:20.749Z,6.73
2022-11-27T20:15:48.315Z,7.00
2022-11-27T20:18:15.014Z,7.20
2022-11-27T20:20:42.078Z,9.17
2022-11-27T20:23:09.007Z,9.83
2022-11-27T20:25:38.708Z,11.50
2022-11-27T20:28:05.449Z,12.13
2022-11-27T20:30:34.386Z,11.40
2022-11-27T20:33:07.231Z,11.57
2022-11-27T20:35:34.498Z,11.00
2022-11-27T20:38:01.267Z,10.60
2022-11-27T20:40:28.525Z,9.73
2022-11-27T20:42:55.810Z,9.40
2022-11-27T20:45:22.601Z,8.83
2022-11-27T20:47:49.740Z,8.50
2022-11-27T20:50:17.008Z,8.33
2022-11-27T20:52:43.834Z,7.10
2022-11-27T20:55:10.508Z,6.63
2022-11-27T20:57:37.265Z,6.83
2022-11-27T21:00:05.299Z,7.20
2022-11-27T21:02:32.689Z,6.93
2022-11-27T21:04:59.457Z,6.70
2022-11-27T21:07:26.655Z,6.57
2022-11-27T21:09:54.159Z,6.27
2022-11-27T21:12:20.865Z,6.20
2022-11-27T21:14:47.582Z,7.03
2022-11-27T21:17:14.574Z,5.70
2022-11-27T21:19:41.589Z,6.10
2022-11-27T21:22:08.778Z,6.03
2022-11-27T21:24:35.488Z,5.53
2022-11-27T21:27:02.240Z,5.73
2022-11-27T21:29:29.066Z,5.20
2022-11-27T21:31:57.116Z,5.57
2022-11-27T21:34:24.675Z,4.87
2022-11-27T21:36:51.368Z,4.50
2022-11-27T21:39:21.858Z,4.93
2022-11-27T21:41:49.200Z,4.67
2022-11-27T21:44:17.825Z,4.83
2022-11-27T21:46:45.592Z,5.10
2022-11-27T21:49:13.568Z,4.97
2022-11-27T21:51:40.361Z,5.60
2022-11-27T21:54:08.227Z,4.70
2022-11-27T21:56:37.789Z,4.87
2022-11-27T21:59:04.793Z,4.80
2022-11-27T22:01:31.561Z,4.80
2022-11-27T22:03:58.336Z,4.40
2022-11-27T22:06:27.143Z,4.00
2022-11-27T22:08:57.724Z,4.80
2022-11-27T22:11:28.759Z,4.57
2022-11-27T22:13:56.348Z,4.50
2022-11-27T22:16:24.128Z,5.23
2022-11-27T22:18:52.940Z,4.27
2022-11-27T22:21:20.225Z,4.80
2022-11-27T22:23:47.381Z,3.93
2022-11-27T22:26:15.327Z,4.90
2022-11-27T22:28:42.510Z,3.83
2022-11-27T22:31:09.328Z,5.10
2022-11-27T22:33:37.159Z,4.80
2022-11-27T22:36:24.184Z,4.87
2022-11-27T22:38:52.343Z,4.43
2022-11-27T22:41:20.892Z,4.33
2022-11-27T22:43:47.608Z,4.60
2022-11-27T22:46:19.441Z,3.87
2022-11-27T22:48:46.411Z,4.00
2022-11-27T22:51:13.313Z,4.43
2022-11-27T22:53:40.214Z,4.03
2022-11-27T22:56:08.199Z,4.53
2022-11-27T22:58:39.789Z,4.17
2022-11-27T23:01:08.697Z,4.00
2022-11-27T23:03:35.704Z,4.33
2022-11-27T23:06:02.526Z,4.40
2022-11-27T23:08:29.235Z,4.30
2022-11-27T23:10:55.940Z,4.17
2022-11-27T23:13:22.623Z,4.43
2022-11-27T23:15:49.286Z,4.27
2022-11-27T23:18:15.956Z,4.50
2022-11-27T23:20:43.505Z,4.40
2022-11-27T23:23:10.849Z,4.10
2022-11-27T23:25:38.027Z,3.70
2022-11-27T23:28:04.819Z,4.27
2022-11-27T23:30:32.008Z,3.87
2022-11-27T23:32:58.681Z,3.80
2022-11-27T23:35:25.317Z,3.47
2022-11-27T23:37:51.971Z,3.80
2022-11-27T23:40:18.949Z,3.93
2022-11-27T23:42:45.596Z,3.33
2022-11-27T23:45:12.423Z,3.87
2022-11-27T23:47:39.313Z,3.60
2022-11-27T23:50:06.870Z,3.93
2022-11-27T23:52:33.523Z,3.50
2022-11-27T23:55:00.172Z,3.30
2022-11-27T23:57:26.912Z,3.20
2022-11-27T23:59:53.509Z,3.33
